Time;durP1;ratioP1;P1;durP2;ratioP2;P2;SDS_P1;SDS_P2;PMS_P1;PMS_P2;Temp;Humidity;BMP_temperature;BMP_pressure;BME280_temperature;BME280_humidity;BME280_pressure;Samples;Min_cycle;Max_cycle;Signal;HPM_P1;HPM_P2
2024/01/16 00:01:18;;;;;;;3.22;1.63;;;2.90;99.90;;;;;;5005480;28;20061;-62
2024/01/16 00:03:44;;;;;;;3.45;1.90;;;2.80;99.90;;;;;;5007249;28;20044;-62
2024/01/16 00:06:10;;;;;;;4.25;1.90;;;2.80;99.90;;;;;;5005380;28;20157;-62
2024/01/16 00:08:36;;;;;;;3.85;2.05;;;2.90;99.90;;;;;;5006451;28;20109;-62
2024/01/16 00:11:02;;;;;;;3.35;1.73;;;2.90;99.90;;;;;;5001862;28;20056;-62
2024/01/16 00:13:28;;;;;;;3.17;1.73;;;2.90;99.90;;;;;;5005566;28;20045;-61
2024/01/16 00:15:56;;;;;;;4.13;1.70;;;2.80;99.90;;;;;;5006765;28;20557;-62
2024/01/16 00:18:22;;;;;;;3.55;1.73;;;2.90;99.90;;;;;;5003237;28;20431;-62
2024/01/16 00:20:48;;;;;;;3.15;2.10;;;2.90;99.90;;;;;;5007001;28;20044;-62
2024/01/16 00:23:14;;;;;;;3.55;1.73;;;2.90;99.90;;;;;;5007092;28;20031;-62
2024/01/16 00:25:41;;;;;;;5.72;2.20;;;2.90;99.90;;;;;;5006598;28;20409;-61
2024/01/16 00:28:07;;;;;;;6.53;2.25;;;2.90;99.90;;;;;;5006628;28;20034;-62
2024/01/16 00:30:33;;;;;;;2.83;1.70;;;2.90;99.90;;;;;;5003285;28;20833;-62
2024/01/16 00:32:59;;;;;;;3.50;1.65;;;2.80;99.90;;;;;;5003780;28;20038;-62
2024/01/16 00:35:25;;;;;;;2.83;1.65;;;2.80;99.90;;;;;;5004634;28;20026;-62
2024/01/16 00:37:52;;;;;;;2.35;1.40;;;2.80;99.90;;;;;;5003973;28;20132;-62
2024/01/16 00:40:18;;;;;;;3.05;1.77;;;2.70;99.90;;;;;;5001494;28;20038;-62
2024/01/16 00:42:43;;;;;;;4.90;1.92;;;2.80;99.90;;;;;;5005827;28;20037;-61
2024/01/16 00:45:09;;;;;;;5.22;1.60;;;2.80;99.90;;;;;;5002584;28;20052;-62
2024/01/16 00:47:35;;;;;;;6.18;1.90;;;2.90;99.90;;;;;;4999359;28;20030;-62
2024/01/16 00:50:01;;;;;;;2.05;1.55;;;2.80;99.90;;;;;;5005940;28;20041;-62
2024/01/16 00:52:28;;;;;;;4.57;1.77;;;2.80;99.90;;;;;;5004297;28;20692;-62
2024/01/16 00:54:53;;;;;;;5.00;2.22;;;2.70;99.90;;;;;;5006200;28;20037;-62
2024/01/16 00:57:19;;;;;;;3.22;2.05;;;2.50;99.90;;;;;;5005766;28;21018;-62
2024/01/16 00:59:46;;;;;;;3.72;1.90;;;2.50;99.90;;;;;;5005356;28;20107;-61
2024/01/16 01:02:12;;;;;;;5.47;1.73;;;2.50;99.90;;;;;;5004275;28;20037;-62
2024/01/16 01:04:38;;;;;;;4.30;2.20;;;2.50;99.90;;;;;;5004673;28;20044;-62
2024/01/16 01:07:04;;;;;;;3.95;2.28;;;2.60;99.90;;;;;;4998157;28;20033;-62
2024/01/16 01:09:32;;;;;;;2.85;2.30;;;2.60;99.90;;;;;;5005302;28;20107;-61
2024/01/16 01:11:58;;;;;;;5.45;2.15;;;2.60;99.90;;;;;;5003806;28;20406;-62
2024/01/16 01:14:25;;;;;;;4.57;2.28;;;2.70;99.90;;;;;;5001282;28;20029;-62
2024/01/16 01:16:51;;;;;;;5.40;2.45;;;2.70;99.90;;;;;;5004214;28;20042;-62
2024/01/16 01:19:17;;;;;;;5.55;2.80;;;2.80;99.90;;;;;;5003827;28;20788;-62
2024/01/16 01:21:43;;;;;;;5.25;2.13;;;2.70;99.90;;;;;;5005510;28;20471;-61
2024/01/16 01:24:09;;;;;;;2.80;2.00;;;2.80;99.90;;;;;;4995170;28;20025;-62
2024/01/16 01:26:35;;;;;;;2.10;1.60;;;2.80;99.90;;;;;;5004489;28;20096;-62
2024/01/16 01:29:02;;;;;;;2.33;1.20;;;2.90;99.90;;;;;;5000968;28;20034;-62
2024/01/16 01:31:27;;;;;;;3.60;1.10;;;2.90;99.90;;;;;;5001266;28;20040;-62
2024/01/16 01:33:53;;;;;;;0.75;0.73;;;2.90;99.90;;;;;;5005219;28;20120;-62
2024/01/16 01:36:19;;;;;;;2.22;0.90;;;2.90;99.90;;;;;;5004161;28;20076;-61
2024/01/16 01:38:44;;;;;;;3.92;0.60;;;2.80;99.90;;;;;;5004505;28;20084;-62
2024/01/16 01:41:13;;;;;;;3.63;0.93;;;2.70;99.90;;;;;;5005243;28;20061;-62
2024/01/16 01:43:39;;;;;;;0.60;0.40;;;2.70;99.90;;;;;;5004124;28;20036;-62
2024/01/16 01:46:18;;;;;;;0.68;0.52;;;2.60;99.90;;;;;;4997452;28;20129;-61
2024/01/16 01:48:45;;;;;;;1.00;0.40;;;2.40;99.90;;;;;;4959029;28;1139139;-62
2024/01/16 01:51:12;;;;;;;1.20;0.40;;;2.40;99.90;;;;;;5005563;28;20025;-62
2024/01/16 01:53:40;;;;;;;2.42;0.32;;;2.30;99.90;;;;;;4999995;28;20029;-62
2024/01/16 01:56:10;;;;;;;0.50;0.47;;;2.20;99.90;;;;;;5002778;28;20033;-62
2024/01/16 01:58:39;;;;;;;1.20;0.40;;;2.10;99.90;;;;;;5000628;28;20052;-61
2024/01/16 02:01:09;;;;;;;1.27;0.45;;;2.10;99.90;;;;;;4998096;28;20065;-62
2024/01/16 02:03:41;;;;;;;0.60;0.30;;;2.10;99.90;;;;;;5003058;28;20033;-62
2024/01/16 02:06:07;;;;;;;0.43;0.40;;;2.10;99.90;;;;;;4999206;28;20060;-62
2024/01/16 02:08:33;;;;;;;2.35;0.50;;;2.10;99.90;;;;;;5005254;28;20115;-62
2024/01/16 02:10:59;;;;;;;0.47;0.47;;;2.10;99.90;;;;;;5004137;28;20029;-62
2024/01/16 02:13:24;;;;;;;0.65;0.38;;;2.10;99.90;;;;;;5004909;28;20021;-62
2024/01/16 02:15:51;;;;;;;0.75;0.47;;;2.10;99.90;;;;;;5001823;28;20735;-62
2024/01/16 02:18:17;;;;;;;1.17;0.68;;;2.10;99.90;;;;;;5005216;28;20501;-62
2024/01/16 02:20:44;;;;;;;2.05;0.60;;;2.10;99.90;;;;;;4997746;28;20077;-62
2024/01/16 02:23:13;;;;;;;6.15;0.60;;;2.10;99.90;;;;;;4993562;28;20419;-62
2024/01/16 02:25:43;;;;;;;1.33;0.70;;;2.20;99.90;;;;;;5004088;28;20030;-62
2024/01/16 02:28:09;;;;;;;0.65;0.30;;;2.10;99.90;;;;;;5004961;28;20500;-62
2024/01/16 02:30:34;;;;;;;2.80;0.70;;;2.10;99.90;;;;;;5009088;28;20026;-62
2024/01/16 02:33:00;;;;;;;1.15;0.60;;;2.10;99.90;;;;;;4996524;28;20034;-62
2024/01/16 02:35:26;;;;;;;1.33;0.63;;;2.10;99.90;;;;;;5002361;28;20027;-62
2024/01/16 02:37:52;;;;;;;3.47;1.17;;;2.10;99.90;;;;;;5002948;28;20045;-62
2024/01/16 02:40:18;;;;;;;3.50;1.70;;;2.10;99.90;;;;;;5006948;28;20033;-62
2024/01/16 02:42:43;;;;;;;5.40;1.80;;;2.00;99.90;;;;;;5007104;28;20060;-62
2024/01/16 02:45:09;;;;;;;3.00;1.40;;;2.10;99.90;;;;;;5007069;28;20050;-63
2024/01/16 02:47:35;;;;;;;4.18;2.00;;;2.10;99.90;;;;;;5007311;28;20057;-63
2024/01/16 02:50:01;;;;;;;4.90;1.77;;;2.10;99.90;;;;;;5005313;28;20034;-62
2024/01/16 02:52:28;;;;;;;2.80;1.00;;;2.00;99.90;;;;;;5003233;28;20029;-62
2024/01/16 02:54:53;;;;;;;6.95;1.73;;;2.00;99.90;;;;;;5003162;28;20386;-63
2024/01/16 02:57:20;;;;;;;5.13;1.33;;;2.00;99.90;;;;;;5005201;28;20046;-63
2024/01/16 02:59:46;;;;;;;3.42;0.63;;;2.00;99.90;;;;;;5002787;28;20049;-63
2024/01/16 03:02:13;;;;;;;2.40;0.50;;;2.00;99.90;;;;;;5003721;28;20097;-62
2024/01/16 03:04:39;;;;;;;2.22;0.98;;;1.90;99.90;;;;;;5004738;28;20065;-63
2024/01/16 03:07:05;;;;;;;2.50;1.10;;;1.90;99.90;;;;;;5007126;28;20038;-63
2024/01/16 03:09:31;;;;;;;3.67;1.00;;;1.90;99.90;;;;;;4999705;28;20068;-63
2024/01/16 03:11:57;;;;;;;1.73;0.73;;;1.90;99.90;;;;;;5005092;28;20036;-63
2024/01/16 03:14:23;;;;;;;2.92;1.05;;;2.00;99.90;;;;;;5002229;28;20061;-63
2024/01/16 03:16:49;;;;;;;2.83;0.70;;;1.90;99.90;;;;;;5006577;28;20108;-63
2024/01/16 03:19:15;;;;;;;2.75;0.50;;;1.90;99.90;;;;;;5007897;28;20026;-63
2024/01/16 03:21:41;;;;;;;1.80;0.63;;;1.90;99.90;;;;;;5008323;28;20034;-63
2024/01/16 03:24:07;;;;;;;0.50;0.45;;;2.00;99.90;;;;;;5007622;28;20038;-63
2024/01/16 03:26:33;;;;;;;1.38;0.82;;;2.00;99.90;;;;;;5004247;28;20042;-63
2024/01/16 03:29:00;;;;;;;4.35;2.08;;;2.00;99.90;;;;;;5001336;28;20041;-63
2024/01/16 03:31:25;;;;;;;3.38;1.13;;;2.00;99.90;;;;;;4999460;28;20037;-63
2024/01/16 03:33:51;;;;;;;4.28;0.85;;;1.90;99.90;;;;;;5002492;28;20030;-63
2024/01/16 03:36:17;;;;;;;1.55;0.57;;;1.90;99.90;;;;;;5004020;28;20022;-64
2024/01/16 03:38:43;;;;;;;4.28;0.80;;;1.90;99.90;;;;;;5004454;28;20044;-63
2024/01/16 03:41:12;;;;;;;1.27;0.63;;;1.90;99.90;;;;;;5007130;28;20058;-63
2024/01/16 03:43:37;;;;;;;1.08;0.52;;;1.90;99.90;;;;;;5003843;28;20033;-63
2024/01/16 03:46:03;;;;;;;1.15;0.60;;;1.90;99.90;;;;;;5004803;28;20034;-63
2024/01/16 03:48:29;;;;;;;1.17;0.60;;;1.90;99.90;;;;;;5005326;28;20034;-63
2024/01/16 03:50:56;;;;;;;1.48;0.60;;;1.90;99.90;;;;;;5006183;28;20811;-63
2024/01/16 03:53:22;;;;;;;0.88;0.82;;;1.80;99.90;;;;;;5000133;28;20037;-63
2024/01/16 03:55:49;;;;;;;0.93;0.50;;;1.80;99.90;;;;;;5007739;28;20037;-63
2024/01/16 03:58:18;;;;;;;2.92;0.57;;;1.80;99.90;;;;;;5004789;28;20681;-63
2024/01/16 04:00:44;;;;;;;1.13;0.55;;;1.90;99.90;;;;;;5003668;28;20704;-63
2024/01/16 04:03:11;;;;;;;1.05;0.50;;;1.90;99.90;;;;;;5001908;28;20085;-63
2024/01/16 04:05:36;;;;;;;0.98;0.60;;;1.90;99.90;;;;;;5001221;28;20116;-63
2024/01/16 04:08:02;;;;;;;0.40;0.40;;;1.80;99.90;;;;;;5004142;28;20080;-63
2024/01/16 04:10:28;;;;;;;2.22;0.80;;;1.80;99.90;;;;;;5000078;28;20037;-63
2024/01/16 04:12:54;;;;;;;1.10;0.73;;;1.80;99.90;;;;;;5005964;28;20022;-63
2024/01/16 04:15:20;;;;;;;0.88;0.70;;;1.70;99.90;;;;;;5002031;28;20034;-63
2024/01/16 04:17:45;;;;;;;0.47;0.43;;;1.80;99.90;;;;;;5007039;28;20041;-62
2024/01/16 04:20:11;;;;;;;2.17;0.60;;;1.80;99.90;;;;;;5000695;28;20037;-63
2024/01/16 04:22:37;;;;;;;1.23;0.73;;;1.80;99.90;;;;;;4999682;28;20145;-63
2024/01/16 04:25:04;;;;;;;2.67;0.60;;;1.70;99.90;;;;;;5004816;28;20375;-64
2024/01/16 04:27:31;;;;;;;1.52;0.70;;;1.70;99.90;;;;;;5003598;28;20029;-63
2024/01/16 04:29:57;;;;;;;1.85;0.60;;;1.70;99.90;;;;;;5005202;28;20617;-63
2024/01/16 04:32:23;;;;;;;5.18;0.90;;;1.70;99.90;;;;;;5006708;28;20041;-63
2024/01/16 04:34:49;;;;;;;2.03;0.90;;;1.60;99.90;;;;;;5007216;28;20034;-63
2024/01/16 04:37:14;;;;;;;6.72;2.17;;;1.60;99.90;;;;;;5003113;28;20080;-63
2024/01/16 04:39:40;;;;;;;4.15;1.40;;;1.60;99.90;;;;;;4997626;28;20042;-63
2024/01/16 04:42:06;;;;;;;4.70;1.20;;;1.60;99.90;;;;;;5000632;28;20045;-63
2024/01/16 04:44:32;;;;;;;2.88;0.77;;;1.50;99.90;;;;;;5006272;28;20044;-63
2024/01/16 04:46:57;;;;;;;4.82;1.00;;;1.50;99.90;;;;;;5001414;28;20046;-63
2024/01/16 04:49:23;;;;;;;0.70;0.70;;;1.40;99.90;;;;;;5002333;28;20026;-63
2024/01/16 04:51:49;;;;;;;1.52;0.85;;;1.40;99.90;;;;;;5002116;28;20026;-64
2024/01/16 04:54:15;;;;;;;3.45;0.80;;;1.40;99.90;;;;;;5006786;28;20583;-64
2024/01/16 04:56:41;;;;;;;2.40;0.88;;;1.40;99.90;;;;;;5006447;28;20715;-63
2024/01/16 04:59:06;;;;;;;8.98;2.47;;;1.40;99.90;;;;;;5000270;28;20050;-63
2024/01/16 05:01:32;;;;;;;13.65;3.75;;;1.40;99.90;;;;;;5005851;28;20030;-64
2024/01/16 05:03:58;;;;;;;13.80;3.70;;;1.40;99.90;;;;;;5004442;28;20133;-63
2024/01/16 05:06:24;;;;;;;8.10;2.72;;;1.40;99.90;;;;;;5006388;28;20118;-63
2024/01/16 05:08:50;;;;;;;2.75;1.23;;;1.30;99.90;;;;;;5005639;28;20038;-63
2024/01/16 05:11:16;;;;;;;2.97;1.02;;;1.30;99.90;;;;;;4999705;28;20038;-63
2024/01/16 05:13:41;;;;;;;3.33;1.00;;;1.30;99.90;;;;;;5002385;28;20022;-63
2024/01/16 05:16:07;;;;;;;1.20;0.90;;;1.20;99.90;;;;;;4996962;28;20044;-63
2024/01/16 05:18:33;;;;;;;1.65;1.08;;;1.20;99.90;;;;;;5006026;28;20034;-63
2024/01/16 05:20:59;;;;;;;2.30;1.63;;;1.10;99.90;;;;;;5003877;28;20053;-64
2024/01/16 05:23:25;;;;;;;3.65;2.90;;;1.00;99.90;;;;;;5005528;28;20048;-64
2024/01/16 05:25:51;;;;;;;4.65;2.78;;;1.00;99.90;;;;;;5001559;28;20091;-63
2024/01/16 05:28:16;;;;;;;5.47;1.98;;;0.90;99.90;;;;;;4998771;28;20049;-63
2024/01/16 05:30:44;;;;;;;3.33;1.65;;;0.90;99.90;;;;;;5005303;28;20562;-64
2024/01/16 05:33:09;;;;;;;2.83;1.10;;;0.80;99.90;;;;;;5000438;28;20120;-62
2024/01/16 05:35:35;;;;;;;2.00;1.00;;;0.70;99.90;;;;;;5003788;28;20394;-63
2024/01/16 05:38:01;;;;;;;1.02;0.85;;;0.70;99.90;;;;;;5005453;28;20034;-63
2024/01/16 05:40:27;;;;;;;1.05;0.52;;;0.70;99.90;;;;;;5004709;28;20744;-63
2024/01/16 05:42:53;;;;;;;0.85;0.82;;;0.60;99.90;;;;;;5002264;28;20083;-63
2024/01/16 05:45:19;;;;;;;1.67;0.90;;;0.60;99.90;;;;;;5005222;28;20094;-63
2024/01/16 05:47:45;;;;;;;1.25;0.52;;;0.50;99.90;;;;;;5000779;28;20069;-63
2024/01/16 05:50:10;;;;;;;3.30;0.90;;;0.50;99.90;;;;;;5000993;28;20072;-63
2024/01/16 05:52:36;;;;;;;2.63;1.40;;;0.50;99.90;;;;;;5002288;28;20146;-63
2024/01/16 05:55:03;;;;;;;3.72;1.45;;;0.60;99.90;;;;;;5001915;28;20029;-63
2024/01/16 05:57:33;;;;;;;2.90;1.70;;;0.50;99.90;;;;;;5002037;28;20026;-63
2024/01/16 06:00:02;;;;;;;2.88;1.75;;;0.50;99.90;;;;;;5004951;28;20077;-63
2024/01/16 06:02:31;;;;;;;2.45;1.38;;;0.50;99.90;;;;;;4997661;28;20582;-63
2024/01/16 06:04:57;;;;;;;1.63;1.17;;;0.50;99.90;;;;;;5002458;28;20034;-64
2024/01/16 06:07:23;;;;;;;2.10;1.23;;;0.60;99.90;;;;;;4998104;28;20578;-63
2024/01/16 06:09:48;;;;;;;4.32;1.52;;;0.60;99.90;;;;;;5000632;28;20863;-63
2024/01/16 06:12:14;;;;;;;3.28;1.60;;;0.60;99.90;;;;;;5001210;28;20025;-63
2024/01/16 06:14:40;;;;;;;2.05;1.42;;;0.70;99.90;;;;;;5005556;28;20037;-63
2024/01/16 06:17:06;;;;;;;4.05;1.52;;;0.80;99.90;;;;;;5003383;28;20030;-63
2024/01/16 06:19:32;;;;;;;1.83;1.30;;;0.80;99.90;;;;;;5004770;28;20700;-63
2024/01/16 06:22:01;;;;;;;2.53;1.38;;;0.90;99.90;;;;;;4997381;28;20041;-63
2024/01/16 06:24:27;;;;;;;2.80;1.25;;;0.90;99.90;;;;;;4995566;28;20042;-63
2024/01/16 06:26:53;;;;;;;2.10;1.10;;;0.90;99.90;;;;;;4998505;28;20048;-63
2024/01/16 06:29:19;;;;;;;3.78;1.60;;;0.90;99.90;;;;;;5004965;28;20030;-63
2024/01/16 06:31:44;;;;;;;2.22;1.70;;;0.90;99.90;;;;;;5003793;28;20037;-63
2024/01/16 06:34:10;;;;;;;3.90;2.08;;;1.00;99.90;;;;;;5003332;28;20038;-63
2024/01/16 06:36:36;;;;;;;4.03;2.67;;;1.00;99.90;;;;;;5002055;28;20453;-63
2024/01/16 06:39:02;;;;;;;3.97;1.63;;;0.90;99.90;;;;;;5004363;28;20030;-64
2024/01/16 06:41:28;;;;;;;3.83;1.88;;;0.90;99.90;;;;;;4998760;28;20401;-63
2024/01/16 06:43:54;;;;;;;3.00;1.80;;;1.00;99.90;;;;;;4997659;28;20026;-63
2024/01/16 06:46:20;;;;;;;3.00;1.80;;;1.10;99.90;;;;;;5000065;28;20034;-64
2024/01/16 06:48:45;;;;;;;3.60;2.30;;;1.10;99.90;;;;;;5003274;28;20057;-63
2024/01/16 06:51:13;;;;;;;2.78;1.70;;;1.10;99.90;;;;;;4998978;28;20092;-63
2024/01/16 06:53:39;;;;;;;4.35;1.95;;;1.20;99.90;;;;;;5004620;28;20022;-63
2024/01/16 06:56:07;;;;;;;3.47;1.90;;;1.20;99.90;;;;;;4998533;28;20461;-64
2024/01/16 06:58:35;;;;;;;3.55;2.10;;;1.20;99.90;;;;;;4999165;28;20030;-63
2024/01/16 07:01:01;;;;;;;4.90;2.72;;;1.20;99.90;;;;;;5001892;28;20053;-63
2024/01/16 07:03:26;;;;;;;3.80;2.40;;;1.30;99.90;;;;;;5002552;28;20030;-63
2024/01/16 07:05:52;;;;;;;3.20;2.20;;;1.40;99.90;;;;;;5001144;28;20033;-63
2024/01/16 07:08:18;;;;;;;2.78;2.15;;;1.40;99.90;;;;;;5002771;28;20263;-63
2024/01/16 07:10:43;;;;;;;6.22;2.40;;;1.40;99.90;;;;;;5001788;28;20447;-63
2024/01/16 07:13:09;;;;;;;5.80;2.92;;;1.40;99.90;;;;;;5008418;28;20211;-63
2024/01/16 07:15:35;;;;;;;13.23;5.40;;;1.40;99.90;;;;;;5000724;28;20080;-63
2024/01/16 07:18:01;;;;;;;22.42;11.77;;;1.50;99.90;;;;;;5004659;28;20067;-63
2024/01/16 07:20:27;;;;;;;27.60;14.60;;;1.50;99.90;;;;;;5004825;28;20044;-63
2024/01/16 07:22:52;;;;;;;31.95;13.82;;;1.60;99.90;;;;;;5006081;28;20088;-63
2024/01/16 07:25:18;;;;;;;32.72;12.68;;;1.60;99.90;;;;;;5005630;28;20045;-63
2024/01/16 07:27:46;;;;;;;19.05;10.15;;;1.60;99.90;;;;;;5008035;28;20073;-63
2024/01/16 07:30:12;;;;;;;12.75;7.60;;;1.60;99.90;;;;;;5006931;28;20045;-63
2024/01/16 07:32:38;;;;;;;13.07;6.72;;;1.60;99.90;;;;;;5004729;28;20059;-63
2024/01/16 07:35:04;;;;;;;11.68;5.40;;;1.60;99.90;;;;;;5004615;28;20179;-63
2024/01/16 07:37:30;;;;;;;6.30;3.72;;;1.60;99.90;;;;;;5004336;28;20502;-63
2024/01/16 07:39:56;;;;;;;6.80;3.67;;;1.60;99.90;;;;;;5008030;28;20049;-62
2024/01/16 07:42:21;;;;;;;7.07;4.25;;;1.70;99.90;;;;;;5004177;28;20705;-63
2024/01/16 07:44:47;;;;;;;8.70;4.68;;;1.70;99.90;;;;;;5006621;28;20095;-63
2024/01/16 07:47:13;;;;;;;7.95;4.32;;;1.70;99.90;;;;;;5002516;28;20502;-63
2024/01/16 07:49:39;;;;;;;6.65;3.65;;;1.70;99.90;;;;;;5003702;28;20034;-63
2024/01/16 07:52:05;;;;;;;6.13;3.47;;;1.70;99.90;;;;;;4992173;28;20030;-63
2024/01/16 07:54:30;;;;;;;5.20;2.92;;;1.70;99.90;;;;;;5007416;28;20080;-63
2024/01/16 07:56:56;;;;;;;4.90;3.22;;;1.80;99.90;;;;;;5003027;28;20049;-63
2024/01/16 07:59:22;;;;;;;5.80;3.58;;;1.90;99.90;;;;;;5004524;28;20390;-63
2024/01/16 08:01:48;;;;;;;4.93;3.08;;;1.90;99.90;;;;;;5004537;28;20038;-63
2024/01/16 08:04:14;;;;;;;9.48;2.95;;;1.90;99.90;;;;;;4998935;28;20038;-64
2024/01/16 08:06:39;;;;;;;5.15;3.17;;;1.90;99.90;;;;;;5006238;28;20041;-64
2024/01/16 08:09:06;;;;;;;13.63;6.47;;;2.00;99.90;;;;;;5003176;28;20037;-64
2024/01/16 08:11:31;;;;;;;21.38;10.95;;;2.00;99.90;;;;;;5007178;28;20025;-64
2024/01/16 08:13:57;;;;;;;25.05;12.48;;;2.10;99.90;;;;;;5003749;28;20030;-57
2024/01/16 08:16:23;;;;;;;21.38;10.13;;;2.10;99.90;;;;;;5004288;28;20074;-61
2024/01/16 08:18:49;;;;;;;9.68;4.70;;;2.10;99.90;;;;;;5006422;28;20044;-60
2024/01/16 08:21:15;;;;;;;7.85;3.53;;;2.20;99.90;;;;;;5004165;28;20037;-61
2024/01/16 08:23:41;;;;;;;6.05;3.67;;;2.20;99.90;;;;;;5006509;28;20108;-60
2024/01/16 08:26:06;;;;;;;9.40;4.55;;;2.30;99.90;;;;;;5007116;28;20034;-60
2024/01/16 08:28:32;;;;;;;6.93;3.85;;;2.30;99.90;;;;;;5002954;28;20033;-61
2024/01/16 08:30:58;;;;;;;4.93;3.17;;;2.30;99.90;;;;;;5000827;28;20036;-60
2024/01/16 08:33:24;;;;;;;7.70;4.50;;;2.30;99.90;;;;;;5006118;28;20061;-61
2024/01/16 08:35:50;;;;;;;7.97;4.85;;;2.40;99.90;;;;;;5006717;28;20072;-61
2024/01/16 08:38:16;;;;;;;9.20;5.32;;;2.40;99.90;;;;;;5003775;28;20084;-60
2024/01/16 08:40:42;;;;;;;18.83;7.80;;;2.40;99.90;;;;;;5002164;28;20033;-60
2024/01/16 08:43:07;;;;;;;11.55;4.60;;;2.20;99.90;;;;;;5003946;28;20517;-61
2024/01/16 08:45:33;;;;;;;13.07;5.70;;;2.20;99.90;;;;;;5006069;28;20029;-60
2024/01/16 08:47:59;;;;;;;19.23;7.22;;;2.30;99.90;;;;;;5006277;28;20455;-60
2024/01/16 08:50:25;;;;;;;8.75;5.60;;;2.30;99.90;;;;;;5004264;28;20132;-60
2024/01/16 08:52:51;;;;;;;10.55;4.72;;;2.40;99.90;;;;;;5004612;28;20536;-61
2024/01/16 08:55:17;;;;;;;11.57;3.70;;;2.40;99.90;;;;;;5002900;28;20465;-60
2024/01/16 08:57:42;;;;;;;10.30;4.18;;;2.50;99.90;;;;;;5005902;28;20030;-60
2024/01/16 09:00:08;;;;;;;10.02;5.05;;;2.50;99.90;;;;;;5004914;28;20524;-63
2024/01/16 09:02:37;;;;;;;10.43;4.80;;;2.50;99.90;;;;;;5003709;28;20030;-63
2024/01/16 09:05:04;;;;;;;9.15;4.25;;;2.50;99.90;;;;;;4998779;28;20026;-63
2024/01/16 09:07:30;;;;;;;13.55;5.32;;;2.40;99.90;;;;;;4999923;28;20088;-64
2024/01/16 09:09:56;;;;;;;7.57;2.78;;;2.40;99.90;;;;;;5004009;28;20477;-64
2024/01/16 09:12:22;;;;;;;6.32;2.28;;;2.40;99.90;;;;;;5004466;28;20026;-64
2024/01/16 09:14:48;;;;;;;3.03;2.03;;;2.40;99.90;;;;;;5004716;28;20030;-64
2024/01/16 09:17:13;;;;;;;6.25;2.63;;;2.30;99.90;;;;;;5005611;28;20033;-64
2024/01/16 09:19:39;;;;;;;4.20;2.40;;;2.40;99.90;;;;;;5005639;28;20837;-63
2024/01/16 09:22:05;;;;;;;6.32;2.63;;;2.50;99.90;;;;;;5005805;28;20065;-63
2024/01/16 09:24:31;;;;;;;3.35;1.95;;;2.60;99.90;;;;;;5003232;28;20033;-63
2024/01/16 09:26:58;;;;;;;4.13;1.83;;;2.60;99.90;;;;;;5002755;28;20340;-64
2024/01/16 09:29:24;;;;;;;4.00;2.30;;;2.70;99.90;;;;;;5001894;28;20022;-63
2024/01/16 09:31:50;;;;;;;15.63;8.50;;;2.70;99.90;;;;;;5005580;28;20496;-64
2024/01/16 09:34:17;;;;;;;5.88;3.15;;;2.80;99.90;;;;;;5000469;28;20038;-63
2024/01/16 09:36:43;;;;;;;20.23;9.73;;;2.90;99.90;;;;;;5001364;28;20030;-63
2024/01/16 09:39:10;;;;;;;10.20;5.45;;;3.00;99.90;;;;;;5004899;28;20080;-63
2024/01/16 09:41:38;;;;;;;9.30;4.78;;;3.00;99.90;;;;;;5004975;28;20449;-63
2024/01/16 09:44:04;;;;;;;8.70;4.55;;;3.00;99.90;;;;;;5000199;28;20042;-60
2024/01/16 09:46:31;;;;;;;7.72;5.00;;;3.10;99.90;;;;;;4997001;28;20034;-62
2024/01/16 09:49:00;;;;;;;7.40;3.08;;;3.10;99.90;;;;;;5002673;28;20433;-60
2024/01/16 09:51:26;;;;;;;6.97;2.50;;;3.10;99.90;;;;;;5004245;28;20087;-60
2024/01/16 09:53:52;;;;;;;6.32;3.38;;;3.20;99.90;;;;;;5004306;28;20091;-60
2024/01/16 09:56:24;;;;;;;3.88;2.10;;;3.20;99.90;;;;;;4999148;28;20030;-60
2024/01/16 09:58:56;;;;;;;6.82;3.63;;;3.30;99.90;;;;;;4998193;28;20116;-62
2024/01/16 10:01:25;;;;;;;8.50;3.88;;;3.40;99.90;;;;;;5029196;28;20030;-62
2024/01/16 10:03:51;;;;;;;6.85;1.98;;;3.40;99.90;;;;;;5005082;28;20038;-62
2024/01/16 10:06:20;;;;;;;6.88;2.70;;;3.50;99.90;;;;;;5003840;28;20516;-62
2024/01/16 10:08:46;;;;;;;6.32;3.53;;;3.50;99.90;;;;;;5004713;28;20037;-62
2024/01/16 10:11:12;;;;;;;8.93;3.08;;;3.60;99.90;;;;;;5004044;28;20042;-62
2024/01/16 10:13:38;;;;;;;29.25;13.00;;;3.60;99.90;;;;;;4999930;28;20081;-62
2024/01/16 10:16:04;;;;;;;29.15;12.68;;;3.60;99.90;;;;;;5004923;28;20073;-62
2024/01/16 10:18:30;;;;;;;18.30;9.35;;;3.60;99.90;;;;;;4998350;28;20046;-62
2024/01/16 10:20:56;;;;;;;15.40;7.85;;;3.70;99.90;;;;;;5004522;28;20052;-60
2024/01/16 10:23:26;;;;;;;15.77;7.53;;;3.60;99.90;;;;;;5003965;28;20030;-60
2024/01/16 10:26:07;;;;;;;9.93;4.55;;;3.60;99.90;;;;;;4999154;28;20046;-60
2024/01/16 10:28:38;;;;;;;5.90;2.40;;;3.50;99.90;;;;;;5001189;28;20034;-60
2024/01/16 10:31:05;;;;;;;8.07;2.25;;;3.50;99.90;;;;;;5002437;28;20037;-60
2024/01/16 10:33:31;;;;;;;6.50;1.73;;;3.60;99.90;;;;;;5003033;28;20030;-60
2024/01/16 10:36:12;;;;;;;7.40;2.53;;;3.70;99.90;;;;;;5002001;28;20041;-60
2024/01/16 10:38:43;;;;;;;12.55;2.83;;;3.60;99.90;;;;;;5002676;28;20033;-60
2024/01/16 10:41:14;;;;;;;13.02;5.55;;;3.70;99.90;;;;;;5000903;28;20898;-60
2024/01/16 10:43:41;;;;;;;13.45;4.70;;;3.60;99.90;;;;;;5003418;28;20034;-60
2024/01/16 10:46:17;;;;;;;72.15;21.10;;;3.40;99.90;;;;;;5005344;28;20034;-60
2024/01/16 10:48:44;;;;;;;137.63;45.78;;;3.50;99.90;;;;;;5001626;28;20124;-60
2024/01/16 10:51:16;;;;;;;135.05;49.30;;;3.50;99.90;;;;;;5007856;28;20077;-59
2024/01/16 10:53:44;;;;;;;26.13;10.68;;;3.40;99.90;;;;;;5004032;28;20055;-60
2024/01/16 10:56:13;;;;;;;26.85;13.95;;;3.20;99.90;;;;;;5004463;28;20042;-61
2024/01/16 10:58:41;;;;;;;10.52;3.53;;;3.20;99.90;;;;;;5004999;28;20038;-59
2024/01/16 11:01:11;;;;;;;6.63;3.15;;;3.00;99.90;;;;;;5002759;28;20513;-60
2024/01/16 11:03:49;;;;;;;8.45;3.17;;;2.80;99.90;;;;;;5007521;28;20046;-60
2024/01/16 11:06:17;;;;;;;4.40;3.10;;;2.70;99.90;;;;;;5007220;28;20073;-59
2024/01/16 11:08:46;;;;;;;7.95;3.63;;;2.70;99.90;;;;;;5007598;28;20022;-59
2024/01/16 11:11:13;;;;;;;9.75;4.07;;;2.70;99.90;;;;;;5006850;28;20037;-60
2024/01/16 11:13:41;;;;;;;9.63;3.85;;;2.70;99.90;;;;;;5007351;28;20671;-60
2024/01/16 11:16:10;;;;;;;10.88;4.60;;;2.80;99.90;;;;;;5001131;28;20026;-60
2024/01/16 11:18:36;;;;;;;10.40;3.70;;;3.00;99.90;;;;;;4995865;28;20041;-62
2024/01/16 11:21:08;;;;;;;9.70;3.45;;;3.10;99.90;;;;;;5005437;28;20116;-62
2024/01/16 11:23:35;;;;;;;10.73;4.13;;;2.90;99.90;;;;;;5005701;28;20048;-62
2024/01/16 11:26:24;;;;;;;10.90;4.30;;;2.80;99.90;;;;;;5004556;28;20041;-62
2024/01/16 11:28:50;;;;;;;9.48;2.83;;;2.70;99.90;;;;;;5002026;28;20128;-62
2024/01/16 11:31:33;;;;;;;9.52;3.20;;;2.70;99.90;;;;;;5003395;28;20133;-62
2024/01/16 11:34:00;;;;;;;7.45;2.38;;;2.60;99.90;;;;;;5002872;28;20030;-62
2024/01/16 11:36:54;;;;;;;11.43;4.60;;;2.70;99.90;;;;;;5004769;28;20038;-62
2024/01/16 11:39:25;;;;;;;15.25;5.55;;;2.70;99.90;;;;;;5001029;28;20168;-62
2024/01/16 11:41:58;;;;;;;19.42;7.10;;;2.60;99.90;;;;;;5007002;28;20049;-62
2024/01/16 11:44:54;;;;;;;13.00;5.25;;;2.60;99.90;;;;;;5003822;28;20490;-62
2024/01/16 11:47:21;;;;;;;11.73;4.45;;;2.30;99.90;;;;;;5000277;28;20045;-62
2024/01/16 11:49:48;;;;;;;11.88;4.93;;;2.00;99.90;;;;;;5005540;28;20033;-61
2024/01/16 11:52:14;;;;;;;16.13;5.18;;;1.90;99.90;;;;;;5005996;28;20417;-62
2024/01/16 11:54:42;;;;;;;9.70;3.20;;;2.00;99.90;;;;;;5002778;28;20052;-61
2024/01/16 11:57:17;;;;;;;10.65;3.65;;;2.00;99.90;;;;;;5000986;28;20042;-60
2024/01/16 11:59:59;;;;;;;19.13;4.32;;;2.30;99.90;;;;;;5003280;28;20037;-60
2024/01/16 12:02:37;;;;;;;10.63;3.55;;;2.30;99.90;;;;;;5005576;28;20034;-60
2024/01/16 12:05:06;;;;;;;12.77;4.75;;;2.20;99.90;;;;;;5004225;28;20452;-62
2024/01/16 12:07:49;;;;;;;11.07;3.83;;;2.00;99.90;;;;;;5003601;28;20038;-59
2024/01/16 12:10:16;;;;;;;29.70;9.30;;;2.00;99.90;;;;;;5005979;28;20028;-60
2024/01/16 12:12:41;;;;;;;15.70;6.45;;;2.00;99.90;;;;;;5005929;28;20092;-60
2024/01/16 12:15:18;;;;;;;155.93;71.72;;;1.90;99.90;;;;;;5002669;28;20421;-60
2024/01/16 12:18:00;;;;;;;61.92;24.15;;;2.00;99.90;;;;;;5005817;28;20042;-60
2024/01/16 12:20:36;;;;;;;43.00;21.60;;;2.20;99.90;;;;;;5000658;28;20108;-61
2024/01/16 12:23:05;;;;;;;55.15;28.85;;;2.20;99.90;;;;;;5000898;28;20042;-60
2024/01/16 12:25:36;;;;;;;18.40;10.20;;;2.20;99.90;;;;;;5005701;28;20100;-60
2024/01/16 12:28:03;;;;;;;19.92;6.85;;;2.20;99.90;;;;;;5002140;28;20088;-60
2024/01/16 12:30:33;;;;;;;15.75;4.78;;;2.30;99.90;;;;;;5035496;28;20027;-60
2024/01/16 12:33:12;;;;;;;9.48;4.85;;;2.20;99.90;;;;;;5002116;28;20034;-60
2024/01/16 12:35:40;;;;;;;21.42;6.20;;;2.20;99.90;;;;;;5000682;28;20367;-60
2024/01/16 12:38:10;;;;;;;7.28;3.60;;;2.50;99.90;;;;;;5005207;28;20474;-60
2024/01/16 12:40:39;;;;;;;9.85;3.65;;;2.60;99.90;;;;;;5000818;28;20873;-61
2024/01/16 12:43:06;;;;;;;25.40;8.23;;;2.60;99.90;;;;;;5003746;28;20057;-62
2024/01/16 12:45:33;;;;;;;8.48;3.65;;;2.60;99.90;;;;;;5001724;28;20026;-62
2024/01/16 12:48:00;;;;;;;5.10;2.42;;;2.50;99.90;;;;;;5004400;28;20410;-62
2024/01/16 12:50:29;;;;;;;8.73;2.63;;;2.50;99.90;;;;;;5005511;28;20044;-62
2024/01/16 12:53:05;;;;;;;41.72;11.88;;;2.40;99.90;;;;;;5000434;28;20457;-60
2024/01/16 12:55:32;;;;;;;;;;;2.30;99.90;;;;;;5006127;28;20053;-60